createdAt,value
2018-01-07T00:00:00.596Z,6.30
2018-01-07T00:02:28.105Z,7.83
2018-01-07T00:04:56.726Z,7.30
2018-01-07T00:07:24.246Z,6.90
2018-01-07T00:09:52.585Z,6.83
2018-01-07T00:12:20.147Z,6.20
2018-01-07T00:17:39.115Z,6.90
2018-01-07T00:20:06.621Z,7.23
2018-01-07T00:22:34.142Z,7.23
2018-01-07T00:25:01.660Z,6.50
2018-01-07T00:27:29.232Z,7.00
2018-01-07T00:29:56.797Z,8.30
2018-01-07T00:32:25.078Z,6.57
2018-01-07T00:34:52.628Z,6.72
2018-01-07T00:37:20.962Z,6.90
2018-01-07T00:39:48.728Z,6.13
2018-01-07T00:42:16.240Z,7.13
2018-01-07T00:44:44.628Z,6.63
2018-01-07T00:47:12.185Z,6.63
2018-01-07T00:49:40.450Z,6.33
2018-01-07T00:52:08.742Z,5.80
2018-01-07T00:54:36.389Z,6.10
2018-01-07T00:57:04.657Z,6.60
2018-01-07T00:59:32.166Z,6.10
2018-01-07T01:01:59.661Z,6.50
2018-01-07T01:04:27.258Z,5.60
2018-01-07T01:06:55.514Z,5.87
2018-01-07T01:09:23.055Z,4.70
2018-01-07T01:11:50.548Z,6.20
2018-01-07T01:14:18.809Z,5.90
2018-01-07T01:16:46.394Z,6.27
2018-01-07T01:19:13.961Z,6.10
2018-01-07T01:21:41.505Z,5.78
2018-01-07T01:24:09.788Z,6.07
2018-01-07T01:26:38.073Z,5.23
2018-01-07T01:29:05.573Z,6.10
2018-01-07T01:31:33.086Z,5.27
2018-01-07T01:34:01.344Z,4.47
2018-01-07T01:36:28.851Z,4.57
2018-01-07T01:38:56.346Z,4.87
2018-01-07T01:41:23.838Z,4.57
2018-01-07T01:43:52.112Z,4.20
2018-01-07T01:46:20.394Z,3.70
2018-01-07T01:48:48.671Z,3.57
2018-01-07T01:51:16.225Z,4.05
2018-01-07T01:53:44.486Z,3.23
2018-01-07T01:56:12.785Z,3.60
2018-01-07T01:58:41.059Z,3.00
2018-01-07T02:01:09.446Z,3.17
2018-01-07T02:03:37.698Z,3.22
2018-01-07T02:06:05.188Z,2.70
2018-01-07T02:08:32.697Z,3.00
2018-01-07T02:11:00.206Z,3.05
2018-01-07T02:13:27.724Z,2.62
2018-01-07T02:15:55.212Z,2.70
2018-01-07T02:18:23.513Z,2.75
2018-01-07T02:20:51.053Z,3.00
2018-01-07T02:23:19.330Z,3.05
2018-01-07T02:25:47.595Z,2.90
2018-01-07T02:28:15.098Z,2.67
2018-01-07T02:30:42.629Z,3.08
2018-01-07T02:33:10.905Z,2.83
2018-01-07T02:35:39.188Z,3.17
2018-01-07T02:38:07.463Z,4.20
2018-01-07T02:40:35.030Z,3.10
2018-01-07T02:43:02.582Z,3.20
2018-01-07T02:45:30.977Z,3.15
2018-01-07T02:47:58.481Z,2.85
2018-01-07T02:50:25.974Z,3.05
2018-01-07T02:52:54.370Z,2.92
2018-01-07T02:55:21.868Z,2.90
2018-01-07T02:57:49.360Z,2.85
2018-01-07T03:00:16.941Z,2.80
2018-01-07T03:02:45.196Z,3.00
2018-01-07T03:05:12.772Z,2.85
2018-01-07T03:07:41.064Z,2.72
2018-01-07T03:10:08.568Z,2.60
2018-01-07T03:12:36.054Z,2.85
2018-01-07T03:15:04.353Z,2.42
2018-01-07T03:17:32.666Z,3.30
2018-01-07T03:20:00.169Z,2.83
2018-01-07T03:22:27.662Z,2.25
2018-01-07T03:24:55.224Z,2.60
2018-01-07T03:27:22.781Z,2.40
2018-01-07T03:29:50.337Z,2.55
2018-01-07T03:32:18.591Z,2.10
2018-01-07T03:34:46.107Z,2.37
2018-01-07T03:37:13.609Z,2.12
2018-01-07T03:39:41.190Z,2.30
2018-01-07T03:42:09.465Z,2.12
2018-01-07T03:44:37.736Z,2.25
2018-01-07T03:47:06.000Z,2.72
2018-01-07T03:49:34.282Z,2.10
2018-01-07T03:52:01.782Z,2.00
2018-01-07T03:54:29.327Z,2.03
2018-01-07T03:56:56.890Z,2.83
2018-01-07T03:59:24.377Z,2.58
2018-01-07T04:01:51.888Z,2.70
2018-01-07T04:04:20.149Z,1.90
2018-01-07T04:06:47.732Z,2.10
2018-01-07T04:09:15.989Z,2.58
2018-01-07T04:11:43.501Z,2.85
2018-01-07T04:14:10.984Z,2.35
2018-01-07T04:16:38.593Z,2.58
2018-01-07T04:19:06.873Z,2.00
2018-01-07T04:21:38.409Z,2.17
2018-01-07T04:24:06.711Z,2.00
2018-01-07T04:26:34.262Z,2.00
2018-01-07T04:29:02.540Z,2.30
2018-01-07T04:31:30.926Z,1.95
2018-01-07T04:33:58.420Z,2.42
2018-01-07T04:36:25.949Z,2.37
2018-01-07T04:38:53.444Z,2.22
2018-01-07T04:41:21.060Z,1.77
2018-01-07T04:43:49.341Z,2.40
2018-01-07T04:46:17.622Z,2.00
2018-01-07T04:48:45.882Z,2.97
2018-01-07T04:51:14.152Z,1.77
2018-01-07T04:53:41.702Z,2.00
2018-01-07T04:56:09.194Z,2.30
2018-01-07T04:58:37.457Z,1.90
2018-01-07T05:01:05.744Z,1.92
2018-01-07T05:03:33.270Z,2.40
2018-01-07T05:06:00.761Z,2.10
2018-01-07T05:08:29.026Z,1.58
2018-01-07T05:10:56.601Z,2.12
2018-01-07T05:13:24.978Z,2.30
2018-01-07T05:15:53.246Z,2.08
2018-01-07T05:18:20.757Z,1.98
2018-01-07T05:20:48.309Z,2.30
2018-01-07T05:23:15.818Z,1.83
2018-01-07T05:25:43.305Z,2.50
2018-01-07T05:28:10.857Z,2.08
2018-01-07T05:30:39.115Z,2.00
2018-01-07T05:33:06.624Z,2.15
2018-01-07T05:35:34.114Z,2.55
2018-01-07T05:38:01.709Z,2.10
2018-01-07T05:40:29.994Z,2.17
2018-01-07T05:42:58.256Z,2.47
2018-01-07T05:45:26.519Z,3.00
2018-01-07T05:47:54.101Z,2.12
2018-01-07T05:50:22.412Z,3.45
2018-01-07T05:52:49.949Z,2.58
2018-01-07T05:55:18.228Z,3.00
2018-01-07T05:57:46.504Z,2.20
2018-01-07T06:00:14.779Z,2.10
2018-01-07T06:02:43.085Z,2.35
2018-01-07T06:05:10.589Z,2.30
2018-01-07T06:07:38.171Z,2.12
2018-01-07T06:10:06.449Z,2.10
2018-01-07T06:12:34.700Z,2.92
2018-01-07T06:15:02.196Z,2.35
2018-01-07T06:17:30.445Z,2.50
2018-01-07T06:19:58.718Z,2.70
2018-01-07T06:22:26.314Z,2.55
2018-01-07T06:24:53.868Z,2.30
2018-01-07T06:27:22.152Z,2.05
2018-01-07T06:29:50.526Z,2.67
2018-01-07T06:32:18.780Z,2.75
2018-01-07T06:34:46.375Z,2.30
2018-01-07T06:37:13.917Z,2.85
2018-01-07T06:39:42.182Z,2.40
2018-01-07T06:42:09.675Z,3.20
2018-01-07T06:44:37.192Z,2.60
2018-01-07T06:47:04.777Z,3.17
2018-01-07T06:49:33.032Z,2.78
2018-01-07T06:52:00.544Z,3.20
2018-01-07T06:54:28.030Z,3.12
2018-01-07T06:56:55.551Z,2.53
2018-01-07T06:59:23.107Z,2.92
2018-01-07T07:01:50.655Z,2.35
2018-01-07T07:04:18.938Z,3.65
2018-01-07T07:06:46.447Z,2.87
2018-01-07T07:09:13.940Z,4.40
2018-01-07T07:11:42.229Z,6.43
2018-01-07T07:14:10.528Z,4.05
2018-01-07T07:16:38.029Z,2.70
2018-01-07T07:19:05.527Z,2.97
2018-01-07T07:21:33.793Z,2.40
2018-01-07T07:24:02.047Z,2.33
2018-01-07T07:26:29.557Z,3.12
2018-01-07T07:28:57.102Z,2.55
2018-01-07T07:31:25.384Z,4.20
2018-01-07T07:33:52.873Z,2.90
2018-01-07T07:36:20.395Z,3.25
2018-01-07T07:38:48.673Z,3.17
2018-01-07T07:41:17.065Z,2.90
2018-01-07T07:43:44.561Z,2.90
2018-01-07T07:46:12.070Z,3.33
2018-01-07T07:48:40.338Z,3.03
2018-01-07T07:51:08.623Z,2.87
2018-01-07T07:53:36.927Z,2.90
2018-01-07T07:56:04.463Z,3.65
2018-01-07T07:58:32.841Z,3.45
2018-01-07T08:01:01.125Z,3.78
2018-01-07T08:03:29.409Z,4.40
2018-01-07T08:05:56.968Z,3.28
2018-01-07T08:08:25.342Z,3.42
2018-01-07T08:10:53.650Z,3.40
2018-01-07T08:13:21.181Z,2.85
2018-01-07T08:15:50.335Z,2.97
2018-01-07T08:18:17.857Z,3.17
2018-01-07T08:20:45.348Z,3.15
2018-01-07T08:23:12.956Z,3.40
2018-01-07T08:25:41.214Z,3.20
2018-01-07T08:28:09.518Z,3.42
2018-01-07T08:30:37.006Z,3.40
2018-01-07T08:33:04.528Z,3.30
2018-01-07T08:35:32.852Z,3.28
2018-01-07T08:38:01.405Z,3.25
2018-01-07T08:40:28.953Z,3.58
2018-01-07T08:42:57.210Z,2.78
2018-01-07T08:45:24.713Z,3.03
2018-01-07T08:47:52.245Z,3.10
2018-01-07T08:50:20.873Z,3.70
2018-01-07T08:52:48.404Z,3.12
2018-01-07T08:55:15.957Z,5.10
2018-01-07T08:57:44.364Z,3.20
2018-01-07T09:00:12.107Z,3.25
2018-01-07T09:02:39.615Z,2.90
2018-01-07T09:05:08.541Z,3.80
2018-01-07T09:07:36.057Z,3.30
2018-01-07T09:10:05.006Z,3.15
2018-01-07T09:12:33.690Z,3.37
2018-01-07T09:15:02.783Z,3.40
2018-01-07T09:17:30.340Z,3.70
2018-01-07T09:19:58.625Z,2.92
2018-01-07T09:22:26.886Z,3.50
2018-01-07T09:24:54.474Z,3.30
2018-01-07T09:27:23.184Z,3.28
2018-01-07T09:29:51.110Z,3.20
2018-01-07T09:32:19.365Z,3.42
2018-01-07T09:34:46.966Z,3.62
2018-01-07T09:37:15.473Z,3.33
2018-01-07T09:39:44.329Z,3.10
2018-01-07T09:42:12.586Z,3.58
2018-01-07T09:44:40.082Z,3.87
2018-01-07T09:47:07.658Z,3.47
2018-01-07T09:49:35.213Z,3.85
2018-01-07T09:52:02.831Z,3.10
2018-01-07T09:54:30.454Z,3.25
2018-01-07T09:56:57.995Z,3.30
2018-01-07T09:59:25.512Z,3.50
2018-01-07T10:01:53.053Z,3.10
2018-01-07T10:04:20.587Z,3.35
2018-01-07T10:06:48.118Z,3.40
2018-01-07T10:09:16.453Z,3.30
2018-01-07T10:11:43.963Z,2.90
2018-01-07T10:14:11.472Z,3.20
2018-01-07T10:16:39.015Z,2.80
2018-01-07T10:19:06.559Z,2.90
2018-01-07T10:21:34.163Z,3.17
2018-01-07T10:24:01.686Z,3.00
2018-01-07T10:26:29.220Z,4.18
2018-01-07T10:28:56.821Z,3.25
2018-01-07T10:31:24.347Z,3.30
2018-01-07T10:33:51.861Z,3.80
2018-01-07T10:36:19.394Z,2.97
2018-01-07T10:38:47.052Z,3.00
2018-01-07T10:41:14.580Z,3.57
2018-01-07T10:43:42.877Z,3.15
2018-01-07T10:46:10.434Z,2.72
2018-01-07T10:48:37.964Z,3.30
2018-01-07T10:51:05.566Z,3.13
2018-01-07T10:53:33.102Z,2.87
2018-01-07T10:56:00.688Z,2.85
2018-01-07T10:58:28.241Z,3.00
2018-01-07T11:01:01.542Z,4.10
2018-01-07T11:03:29.076Z,3.23
2018-01-07T11:05:56.667Z,3.30
2018-01-07T11:08:24.203Z,2.75
2018-01-07T11:10:51.717Z,2.90
2018-01-07T11:13:19.343Z,3.17
2018-01-07T11:15:47.689Z,3.50
2018-01-07T11:18:15.328Z,3.70
2018-01-07T11:20:42.953Z,3.40
2018-01-07T11:23:10.573Z,3.57
2018-01-07T11:25:38.920Z,3.25
2018-01-07T11:28:06.462Z,2.90
2018-01-07T11:30:33.977Z,2.75
2018-01-07T11:33:02.290Z,3.30
2018-01-07T11:35:29.879Z,3.60
2018-01-07T11:37:57.398Z,3.20
2018-01-07T11:40:24.963Z,3.55
2018-01-07T11:42:52.478Z,3.57
2018-01-07T11:45:20.123Z,4.50
2018-01-07T11:47:47.748Z,3.70
2018-01-07T11:50:15.337Z,7.70
2018-01-07T11:52:42.854Z,8.10
2018-01-07T11:55:11.146Z,4.20
2018-01-07T11:57:38.714Z,3.93
2018-01-07T12:00:06.237Z,6.30
2018-01-07T12:02:34.517Z,3.17
2018-01-07T12:05:02.929Z,3.27
2018-01-07T12:07:30.445Z,5.93
2018-01-07T12:09:58.063Z,4.20
2018-01-07T12:12:25.736Z,5.57
2018-01-07T12:14:53.531Z,4.43
2018-01-07T12:17:21.253Z,5.87
2018-01-07T12:19:49.730Z,5.22
2018-01-07T12:22:17.274Z,13.27
2018-01-07T12:24:44.858Z,4.10
2018-01-07T12:27:13.959Z,9.60
2018-01-07T12:29:41.485Z,9.17
2018-01-07T12:32:09.785Z,5.50
2018-01-07T12:34:37.556Z,6.93
2018-01-07T12:37:05.221Z,12.53
2018-01-07T12:39:32.915Z,20.03
2018-01-07T12:42:02.565Z,9.00
2018-01-07T12:44:32.485Z,7.00
2018-01-07T12:47:00.076Z,4.07
2018-01-07T12:49:28.416Z,3.83
2018-01-07T12:51:56.721Z,3.50
2018-01-07T12:54:24.286Z,3.20
2018-01-07T12:56:52.157Z,3.43
2018-01-07T12:59:19.942Z,2.83
2018-01-07T13:01:47.501Z,3.00
2018-01-07T13:04:15.431Z,3.43
2018-01-07T13:06:43.001Z,3.65
2018-01-07T13:09:10.628Z,3.03
2018-01-07T13:11:38.943Z,3.08
2018-01-07T13:14:06.478Z,3.35
2018-01-07T13:16:38.688Z,3.72
2018-01-07T13:19:06.229Z,3.65
2018-01-07T13:21:33.757Z,3.20
2018-01-07T13:24:02.058Z,3.45
2018-01-07T13:26:29.624Z,3.15
2018-01-07T13:28:57.138Z,3.30
2018-01-07T13:31:24.673Z,3.45
2018-01-07T13:33:52.211Z,2.90
2018-01-07T13:36:19.725Z,3.20
2018-01-07T13:38:48.024Z,3.85
2018-01-07T13:41:16.320Z,3.22
2018-01-07T13:43:43.850Z,3.60
2018-01-07T13:46:11.368Z,3.80
2018-01-07T13:48:38.897Z,2.83
2018-01-07T13:51:06.431Z,3.30
2018-01-07T13:53:34.741Z,3.20
2018-01-07T13:56:02.329Z,4.10
2018-01-07T13:58:29.867Z,3.12
2018-01-07T14:00:57.398Z,3.15
2018-01-07T14:03:25.705Z,3.42
2018-01-07T14:05:53.233Z,3.78
2018-01-07T14:08:21.537Z,3.67
2018-01-07T14:10:49.317Z,3.00
2018-01-07T14:13:17.784Z,3.85
2018-01-07T14:15:45.465Z,3.37
2018-01-07T14:18:13.536Z,3.90
2018-01-07T14:20:41.717Z,3.05
2018-01-07T14:23:10.786Z,3.37
2018-01-07T14:25:38.326Z,3.50
2018-01-07T14:28:06.954Z,3.37
2018-01-07T14:30:34.866Z,3.55
2018-01-07T14:33:03.712Z,5.05
2018-01-07T14:35:31.378Z,3.22
2018-01-07T14:37:58.928Z,2.90
2018-01-07T14:40:26.468Z,2.97
2018-01-07T14:42:53.987Z,3.20
2018-01-07T14:45:21.510Z,2.87
2018-01-07T14:47:49.063Z,3.00
2018-01-07T14:50:16.600Z,2.87
2018-01-07T14:52:44.904Z,3.15
2018-01-07T14:55:12.473Z,3.05
2018-01-07T14:57:40.012Z,3.35
2018-01-07T15:00:07.548Z,3.03
2018-01-07T15:02:35.975Z,3.50
2018-01-07T15:05:03.523Z,3.42
2018-01-07T15:07:31.040Z,2.90
2018-01-07T15:09:58.651Z,2.85
2018-01-07T15:12:26.169Z,3.00
2018-01-07T15:14:53.765Z,3.45
2018-01-07T15:17:21.277Z,3.65
2018-01-07T15:19:48.802Z,2.53
2018-01-07T15:22:16.353Z,3.22
2018-01-07T15:24:43.866Z,3.20
2018-01-07T15:27:11.467Z,3.72
2018-01-07T15:29:38.977Z,3.70
2018-01-07T15:32:06.503Z,3.00
2018-01-07T15:34:34.050Z,2.78
2018-01-07T15:37:01.606Z,2.92
2018-01-07T15:39:29.139Z,3.45
2018-01-07T15:41:57.446Z,4.35
2018-01-07T15:44:25.046Z,4.40
2018-01-07T15:46:52.591Z,3.58
2018-01-07T15:49:20.129Z,2.97
2018-01-07T15:51:47.651Z,2.90
2018-01-07T15:54:15.939Z,2.80
2018-01-07T15:56:44.293Z,3.20
2018-01-07T15:59:11.815Z,2.92
2018-01-07T16:01:39.341Z,2.72
2018-01-07T16:04:07.669Z,2.65
2018-01-07T16:06:35.316Z,2.72
2018-01-07T16:09:02.831Z,2.90
2018-01-07T16:11:30.436Z,3.20
2018-01-07T16:13:58.006Z,2.72
2018-01-07T16:16:25.762Z,3.05
2018-01-07T16:18:53.301Z,3.28
2018-01-07T16:21:20.821Z,2.78
2018-01-07T16:23:48.433Z,3.28
2018-01-07T16:26:16.027Z,3.62
2018-01-07T16:28:43.617Z,3.10
2018-01-07T16:31:11.829Z,3.22
2018-01-07T16:33:39.636Z,3.10
2018-01-07T16:36:07.201Z,2.90
2018-01-07T16:38:38.418Z,2.83
2018-01-07T16:41:05.961Z,3.15
2018-01-07T16:43:33.518Z,2.90
2018-01-07T16:46:01.100Z,3.60
2018-01-07T16:48:28.654Z,3.55
2018-01-07T16:50:56.166Z,2.90
2018-01-07T16:53:24.493Z,2.65
2018-01-07T16:55:52.011Z,3.30
2018-01-07T16:58:20.469Z,3.03
2018-01-07T17:00:48.514Z,3.50
2018-01-07T17:03:16.073Z,3.22
2018-01-07T17:05:43.644Z,3.10
2018-01-07T17:08:11.297Z,3.72
2018-01-07T17:10:38.862Z,3.60
2018-01-07T17:13:06.518Z,3.15
2018-01-07T17:15:34.074Z,3.30
2018-01-07T17:18:01.615Z,3.42
2018-01-07T17:20:29.196Z,3.33
2018-01-07T17:22:56.705Z,3.75
2018-01-07T17:25:24.245Z,3.65
2018-01-07T17:27:51.777Z,4.93
2018-01-07T17:30:19.324Z,5.03
2018-01-07T17:32:46.900Z,4.93
2018-01-07T17:35:14.448Z,4.60
2018-01-07T17:37:41.965Z,4.80
2018-01-07T17:40:09.569Z,5.50
2018-01-07T17:42:37.109Z,4.95
2018-01-07T17:45:05.418Z,5.62
2018-01-07T17:47:32.964Z,6.32
2018-01-07T17:50:00.546Z,4.53
2018-01-07T17:52:28.076Z,4.03
2018-01-07T17:54:56.386Z,4.30
2018-01-07T17:57:23.921Z,5.05
2018-01-07T17:59:51.513Z,6.20
2018-01-07T18:02:19.035Z,6.40
2018-01-07T18:04:47.336Z,6.15
2018-01-07T18:07:16.011Z,6.25
2018-01-07T18:09:43.660Z,5.07
2018-01-07T18:12:12.098Z,4.62
2018-01-07T18:14:39.724Z,4.32
2018-01-07T18:17:07.293Z,4.28
2018-01-07T18:19:41.303Z,3.97
2018-01-07T18:22:08.902Z,4.40
2018-01-07T18:24:36.508Z,3.42
2018-01-07T18:27:04.334Z,3.17
2018-01-07T18:29:31.945Z,3.60
2018-01-07T18:31:59.515Z,3.60
2018-01-07T18:34:27.083Z,3.40
2018-01-07T18:36:54.621Z,3.40
2018-01-07T18:39:22.186Z,3.15
2018-01-07T18:41:49.755Z,2.40
2018-01-07T18:44:17.315Z,2.80
2018-01-07T18:46:44.981Z,3.17
2018-01-07T18:49:12.573Z,3.00
2018-01-07T18:51:40.308Z,2.80
2018-01-07T18:54:07.906Z,3.20
2018-01-07T18:56:35.633Z,3.37
2018-01-07T18:59:03.186Z,3.10
2018-01-07T19:01:30.715Z,3.83
2018-01-07T19:03:59.057Z,3.42
2018-01-07T19:06:26.582Z,2.70
2018-01-07T19:08:54.124Z,3.03
2018-01-07T19:11:22.531Z,3.03
2018-01-07T19:13:50.297Z,3.67
2018-01-07T19:16:17.845Z,3.15
2018-01-07T19:18:45.372Z,3.03
2018-01-07T19:21:13.269Z,3.05
2018-01-07T19:23:40.805Z,3.25
2018-01-07T19:26:08.364Z,2.75
2018-01-07T19:28:36.745Z,3.10
2018-01-07T19:31:05.063Z,3.20
2018-01-07T19:33:32.590Z,3.25
2018-01-07T19:36:02.146Z,3.40
2018-01-07T19:38:30.784Z,3.20
2018-01-07T19:40:59.873Z,3.22
2018-01-07T19:43:29.333Z,2.87
2018-01-07T19:45:57.701Z,2.90
2018-01-07T19:48:25.235Z,3.50
2018-01-07T19:50:53.542Z,3.10
2018-01-07T19:53:21.100Z,2.75
2018-01-07T19:55:49.036Z,3.45
2018-01-07T19:58:18.676Z,3.50
2018-01-07T20:00:46.446Z,3.53
2018-01-07T20:03:13.995Z,3.10
2018-01-07T20:05:41.531Z,3.25
2018-01-07T20:08:09.943Z,3.28
2018-01-07T20:10:37.475Z,3.97
2018-01-07T20:13:05.755Z,3.35
2018-01-07T20:15:34.059Z,3.25
2018-01-07T20:18:01.616Z,3.33
2018-01-07T20:20:29.177Z,3.20
2018-01-07T20:22:56.700Z,3.10
2018-01-07T20:25:25.012Z,3.35
2018-01-07T20:27:52.563Z,4.10
2018-01-07T20:30:20.104Z,3.58
2018-01-07T20:32:48.398Z,3.62
2018-01-07T20:35:15.999Z,2.97
2018-01-07T20:37:43.598Z,3.87
2018-01-07T20:40:11.186Z,3.62
2018-01-07T20:42:38.758Z,3.65
2018-01-07T20:45:06.293Z,2.83
2018-01-07T20:47:38.275Z,3.30
2018-01-07T20:50:05.868Z,3.53
2018-01-07T20:52:33.503Z,3.08
2018-01-07T20:55:01.041Z,3.78
2018-01-07T20:57:28.563Z,2.90
2018-01-07T20:59:56.197Z,2.95
2018-01-07T21:02:23.738Z,3.10
2018-01-07T21:04:51.328Z,2.58
2018-01-07T21:07:18.856Z,2.90
2018-01-07T21:09:46.397Z,3.40
2018-01-07T21:12:14.696Z,3.10
2018-01-07T21:14:42.227Z,3.40
2018-01-07T21:17:09.769Z,3.78
2018-01-07T21:19:37.295Z,3.90
2018-01-07T21:22:04.840Z,3.50
2018-01-07T21:24:32.519Z,3.17
2018-01-07T21:27:00.080Z,3.85
2018-01-07T21:29:27.627Z,3.25
2018-01-07T21:31:55.153Z,3.35
2018-01-07T21:34:23.470Z,3.53
2018-01-07T21:36:51.032Z,3.65
2018-01-07T21:39:18.936Z,3.97
2018-01-07T21:41:46.551Z,3.70
2018-01-07T21:44:14.112Z,3.83
2018-01-07T21:46:41.673Z,3.45
2018-01-07T21:49:09.248Z,3.20
2018-01-07T21:51:36.805Z,3.92
2018-01-07T21:54:04.438Z,3.50
2018-01-07T21:56:32.847Z,4.57
2018-01-07T21:59:00.712Z,4.87
2018-01-07T22:01:40.198Z,4.68
2018-01-07T22:04:10.789Z,5.97
2018-01-07T22:06:51.520Z,4.35
2018-01-07T22:09:20.657Z,3.85
2018-01-07T22:11:49.537Z,4.22
2018-01-07T22:14:18.486Z,3.87
2018-01-07T22:16:48.147Z,3.80
2018-01-07T22:19:15.837Z,3.70
2018-01-07T22:21:43.392Z,4.22
2018-01-07T22:24:10.924Z,4.95
2018-01-07T22:26:38.442Z,4.20
2018-01-07T22:29:05.989Z,3.75
2018-01-07T22:31:33.509Z,4.30
2018-01-07T22:34:01.064Z,4.07
2018-01-07T22:36:28.760Z,5.80
2018-01-07T22:38:56.301Z,5.53
2018-01-07T22:41:23.858Z,4.40
2018-01-07T22:43:51.380Z,4.32
2018-01-07T22:46:21.053Z,4.00
2018-01-07T22:48:48.802Z,4.97
2018-01-07T22:51:16.440Z,3.65
2018-01-07T22:53:44.831Z,4.50
2018-01-07T22:56:13.116Z,4.68
2018-01-07T22:58:40.720Z,4.82
2018-01-07T23:01:08.328Z,4.60
2018-01-07T23:03:35.889Z,6.45
2018-01-07T23:06:03.414Z,4.05
2018-01-07T23:08:33.521Z,4.90
2018-01-07T23:11:01.057Z,4.85
2018-01-07T23:13:28.581Z,4.60
2018-01-07T23:15:56.226Z,5.00
2018-01-07T23:18:25.040Z,4.87
2018-01-07T23:20:53.986Z,4.93
2018-01-07T23:23:23.046Z,4.72
2018-01-07T23:25:51.569Z,4.85
2018-01-07T23:28:20.520Z,5.82
2018-01-07T23:30:49.304Z,4.75
2018-01-07T23:33:16.905Z,5.85
2018-01-07T23:35:44.442Z,5.25
2018-01-07T23:38:11.977Z,4.80
2018-01-07T23:40:39.504Z,4.97
2018-01-07T23:43:07.789Z,4.82
2018-01-07T23:45:36.252Z,5.82
2018-01-07T23:48:03.752Z,4.50
2018-01-07T23:50:31.294Z,5.18
2018-01-07T23:52:59.595Z,5.30
2018-01-07T23:55:27.173Z,4.65
2018-01-07T23:57:54.713Z,5.00
